Time;durP1;ratioP1;P1;durP2;ratioP2;P2;SDS_P1;SDS_P2;PMS_P1;PMS_P2;Temp;Humidity;BMP_temperature;BMP_pressure;BME280_temperature;BME280_humidity;BME280_pressure;Samples;Min_cycle;Max_cycle;Signal;HPM_P1;HPM_P2
2023/05/17 00:00:34;;;;;;;23.67;6.63;;;;;;;;;;4976523;28;20031;-81
2023/05/17 00:03:00;;;;;;;21.10;6.60;;;;;;;;;;4967472;28;20115;-78
2023/05/17 00:05:26;;;;;;;21.10;7.00;;;;;;;;;;4945296;29;20573;-76
2023/05/17 00:07:52;;;;;;;22.67;6.55;;;;;;;;;;4963303;28;20034;-75
2023/05/17 00:10:18;;;;;;;22.92;6.25;;;;;;;;;;4975461;28;20496;-74
2023/05/17 00:12:45;;;;;;;19.13;7.55;;;;;;;;;;4957216;28;20034;-77
2023/05/17 00:15:13;;;;;;;22.35;6.78;;;;;;;;;;4951962;28;20083;-78
2023/05/17 00:17:39;;;;;;;14.38;6.00;;;;;;;;;;4968234;28;20033;-76
2023/05/17 00:20:05;;;;;;;16.65;6.15;;;;;;;;;;4946831;28;20117;-78
2023/05/17 00:22:31;;;;;;;25.23;7.07;;;;;;;;;;4947792;28;20027;-77
2023/05/17 00:24:57;;;;;;;21.17;6.47;;;;;;;;;;4957773;28;20576;-76
2023/05/17 00:27:23;;;;;;;23.48;6.72;;;;;;;;;;4957258;28;20095;-77
2023/05/17 00:29:49;;;;;;;18.13;6.50;;;;;;;;;;4947456;28;20058;-76
2023/05/17 00:32:15;;;;;;;25.67;7.63;;;;;;;;;;4955741;28;20126;-75
2023/05/17 00:34:41;;;;;;;20.70;6.78;;;;;;;;;;4962920;28;20826;-77
2023/05/17 00:37:07;;;;;;;24.52;6.97;;;;;;;;;;4956645;28;20053;-78
2023/05/17 00:39:33;;;;;;;27.60;7.30;;;;;;;;;;4967903;28;20668;-78
2023/05/17 00:42:00;;;;;;;30.15;8.10;;;;;;;;;;4955676;28;20059;-77
2023/05/17 00:44:26;;;;;;;22.08;6.30;;;;;;;;;;4956368;28;20022;-77
2023/05/17 00:46:52;;;;;;;22.33;7.50;;;;;;;;;;4970757;28;20069;-77
2023/05/17 00:49:18;;;;;;;22.35;7.20;;;;;;;;;;4972913;28;20489;-78
2023/05/17 00:51:45;;;;;;;18.88;7.38;;;;;;;;;;4974219;28;20026;-75
2023/05/17 00:54:11;;;;;;;22.13;6.40;;;;;;;;;;4975801;28;20026;-76
2023/05/17 00:56:38;;;;;;;18.88;7.05;;;;;;;;;;4953753;28;20034;-76
2023/05/17 00:59:06;;;;;;;22.08;7.00;;;;;;;;;;4967438;28;20033;-77
2023/05/17 01:01:32;;;;;;;24.67;6.38;;;;;;;;;;4962625;28;20038;-76
2023/05/17 01:03:58;;;;;;;19.52;6.10;;;;;;;;;;4945376;29;20019;-76
2023/05/17 01:06:24;;;;;;;27.52;7.55;;;;;;;;;;4938807;28;20602;-77
2023/05/17 01:08:51;;;;;;;26.63;8.48;;;;;;;;;;4950754;28;20035;-76
2023/05/17 01:11:22;;;;;;;21.70;7.28;;;;;;;;;;4966183;28;20027;-77
2023/05/17 01:13:59;;;;;;;20.92;7.57;;;;;;;;;;4952613;28;20034;-77
2023/05/17 01:16:43;;;;;;;24.25;6.97;;;;;;;;;;4952404;28;20050;-76
2023/05/17 01:19:18;;;;;;;20.50;6.78;;;;;;;;;;4965363;28;20031;-78
2023/05/17 01:21:50;;;;;;;21.33;8.38;;;;;;;;;;4943674;28;20057;-77
2023/05/17 01:24:25;;;;;;;27.35;8.65;;;;;;;;;;4949380;28;20449;-76
2023/05/17 01:26:52;;;;;;;28.05;8.18;;;;;;;;;;4972276;28;20030;-78
2023/05/17 01:29:21;;;;;;;31.80;8.50;;;;;;;;;;4956924;28;20039;-78
2023/05/17 01:31:49;;;;;;;21.38;7.38;;;;;;;;;;4961826;28;20110;-77
2023/05/17 01:34:23;;;;;;;27.35;8.70;;;;;;;;;;4955332;28;20027;-76
2023/05/17 01:36:49;;;;;;;20.27;8.23;;;;;;;;;;4947616;28;20523;-79
2023/05/17 01:39:15;;;;;;;27.75;9.40;;;;;;;;;;4954011;28;20126;-77
2023/05/17 01:41:43;;;;;;;25.98;8.15;;;;;;;;;;4948354;28;20118;-76
2023/05/17 01:44:19;;;;;;;29.65;10.05;;;;;;;;;;4967615;28;20031;-76
2023/05/17 01:46:46;;;;;;;22.30;8.32;;;;;;;;;;4971736;28;20035;-78
2023/05/17 01:49:18;;;;;;;29.60;9.65;;;;;;;;;;4969078;28;20146;-77
2023/05/17 01:51:50;;;;;;;23.30;9.13;;;;;;;;;;4948909;28;20034;-77
2023/05/17 01:54:21;;;;;;;27.23;8.45;;;;;;;;;;4960269;28;20035;-77
2023/05/17 01:56:48;;;;;;;30.73;9.75;;;;;;;;;;4956407;28;20034;-77
2023/05/17 01:59:20;;;;;;;25.08;8.57;;;;;;;;;;4966639;28;20035;-76
2023/05/17 02:01:48;;;;;;;30.17;9.18;;;;;;;;;;4953339;28;20103;-76
2023/05/17 02:04:14;;;;;;;24.20;8.73;;;;;;;;;;4968187;28;20085;-76
2023/05/17 02:06:40;;;;;;;19.70;8.40;;;;;;;;;;4953966;28;20035;-77
2023/05/17 02:09:06;;;;;;;18.67;8.52;;;;;;;;;;4951673;28;20504;-77
2023/05/17 02:11:32;;;;;;;26.30;8.40;;;;;;;;;;4947207;29;20121;-77
2023/05/17 02:13:58;;;;;;;21.45;6.82;;;;;;;;;;4960172;28;20023;-77
2023/05/17 02:16:24;;;;;;;28.60;10.00;;;;;;;;;;4947289;28;20034;-77
2023/05/17 02:18:50;;;;;;;31.92;9.18;;;;;;;;;;4970917;28;20030;-76
2023/05/17 02:21:17;;;;;;;23.80;8.50;;;;;;;;;;4970502;28;20039;-77
2023/05/17 02:23:43;;;;;;;22.05;8.65;;;;;;;;;;4953329;28;20019;-78
2023/05/17 02:26:09;;;;;;;28.58;10.73;;;;;;;;;;4953267;28;20023;-77
2023/05/17 02:28:35;;;;;;;27.63;8.68;;;;;;;;;;4961381;28;20054;-76
2023/05/17 02:31:01;;;;;;;22.17;7.53;;;;;;;;;;4951706;28;20027;-78
2023/05/17 02:33:27;;;;;;;28.17;10.25;;;;;;;;;;4970014;28;20433;-78
2023/05/17 02:35:53;;;;;;;27.42;9.75;;;;;;;;;;4966965;28;20075;-77
2023/05/17 02:38:19;;;;;;;27.40;9.07;;;;;;;;;;4958907;28;20638;-77
2023/05/17 02:40:45;;;;;;;43.80;11.23;;;;;;;;;;4945635;29;20150;-77
2023/05/17 02:43:11;;;;;;;24.65;8.70;;;;;;;;;;4970671;28;20102;-77
2023/05/17 02:45:37;;;;;;;21.88;9.05;;;;;;;;;;4964446;28;20027;-77
2023/05/17 02:48:03;;;;;;;20.20;8.93;;;;;;;;;;4960682;28;20043;-77
2023/05/17 02:50:29;;;;;;;26.48;9.57;;;;;;;;;;4959402;28;20098;-77
2023/05/17 02:52:55;;;;;;;26.77;10.43;;;;;;;;;;4957764;28;20642;-77
2023/05/17 02:55:21;;;;;;;32.80;9.52;;;;;;;;;;4961968;28;20023;-76
2023/05/17 02:57:50;;;;;;;31.25;8.90;;;;;;;;;;4964675;28;20091;-78
2023/05/17 03:00:17;;;;;;;29.60;10.00;;;;;;;;;;4949333;28;20519;-78
2023/05/17 03:02:43;;;;;;;16.67;7.35;;;;;;;;;;4947029;29;20031;-77
2023/05/17 03:05:11;;;;;;;20.85;7.20;;;;;;;;;;4963786;28;20038;-77
2023/05/17 03:07:38;;;;;;;15.85;5.50;;;;;;;;;;4960018;28;20073;-77
2023/05/17 03:10:05;;;;;;;29.40;9.02;;;;;;;;;;4967906;28;20482;-77
2023/05/17 03:12:31;;;;;;;22.63;9.00;;;;;;;;;;4959645;28;20490;-77
2023/05/17 03:14:57;;;;;;;20.80;9.25;;;;;;;;;;4977974;28;20107;-78
2023/05/17 03:17:23;;;;;;;31.05;9.32;;;;;;;;;;4979729;28;20023;-77
2023/05/17 03:19:50;;;;;;;16.50;5.95;;;;;;;;;;4977040;28;20019;-77
2023/05/17 03:22:17;;;;;;;26.42;9.90;;;;;;;;;;4973986;28;20035;-76
2023/05/17 03:24:43;;;;;;;24.70;9.43;;;;;;;;;;4975960;28;20058;-77
2023/05/17 03:27:09;;;;;;;21.95;9.13;;;;;;;;;;4976209;28;20027;-77
2023/05/17 03:29:35;;;;;;;22.88;8.98;;;;;;;;;;4947001;29;20046;-77
2023/05/17 03:32:01;;;;;;;22.92;9.20;;;;;;;;;;4974578;28;20125;-78
2023/05/17 03:34:27;;;;;;;23.27;9.57;;;;;;;;;;4965555;28;20493;-77
2023/05/17 03:36:53;;;;;;;20.58;8.65;;;;;;;;;;4972060;28;20074;-78
2023/05/17 03:39:19;;;;;;;31.48;9.57;;;;;;;;;;4965550;28;20397;-77
2023/05/17 03:41:48;;;;;;;26.73;8.88;;;;;;;;;;4975121;28;20037;-76
2023/05/17 03:44:14;;;;;;;20.95;7.95;;;;;;;;;;4975238;28;20588;-77
2023/05/17 03:46:40;;;;;;;20.38;8.75;;;;;;;;;;4956602;28;20023;-78
2023/05/17 03:49:06;;;;;;;21.25;8.18;;;;;;;;;;4963187;28;20039;-77
2023/05/17 03:51:32;;;;;;;22.40;8.38;;;;;;;;;;4971697;28;20030;-78
2023/05/17 03:54:00;;;;;;;16.30;7.20;;;;;;;;;;4976008;28;20030;-78
2023/05/17 03:56:26;;;;;;;22.33;7.57;;;;;;;;;;4958114;28;20028;-76
2023/05/17 03:58:52;;;;;;;20.33;7.45;;;;;;;;;;4974835;28;20030;-76
2023/05/17 04:01:19;;;;;;;17.90;7.38;;;;;;;;;;4967204;28;20079;-79
2023/05/17 04:03:46;;;;;;;19.80;7.85;;;;;;;;;;4945209;28;20531;-77
2023/05/17 04:06:14;;;;;;;23.52;9.25;;;;;;;;;;4965364;28;20035;-76
2023/05/17 04:08:41;;;;;;;22.25;8.00;;;;;;;;;;4946698;29;20070;-77
2023/05/17 04:11:12;;;;;;;22.23;7.53;;;;;;;;;;4948295;28;20026;-76
2023/05/17 04:13:38;;;;;;;22.15;7.93;;;;;;;;;;4968144;28;20066;-77
2023/05/17 04:16:04;;;;;;;17.80;7.07;;;;;;;;;;4954539;28;20118;-77
2023/05/17 04:18:30;;;;;;;17.50;6.68;;;;;;;;;;4960736;28;20023;-77
2023/05/17 04:20:56;;;;;;;21.30;8.65;;;;;;;;;;4957109;28;20031;-76
2023/05/17 04:23:22;;;;;;;15.30;6.72;;;;;;;;;;4965506;28;20035;-77
2023/05/17 04:25:48;;;;;;;15.77;6.72;;;;;;;;;;4966720;28;20027;-75
2023/05/17 04:28:14;;;;;;;24.45;6.95;;;;;;;;;;4961521;28;20022;-77
2023/05/17 04:30:46;;;;;;;22.00;7.05;;;;;;;;;;4953372;28;20478;-75
2023/05/17 04:33:12;;;;;;;18.13;6.60;;;;;;;;;;4961102;28;20023;-76
2023/05/17 04:35:38;;;;;;;17.50;7.47;;;;;;;;;;4950712;28;20808;-76
2023/05/17 04:38:04;;;;;;;20.17;6.47;;;;;;;;;;4970876;28;20038;-77
2023/05/17 04:40:30;;;;;;;14.50;6.00;;;;;;;;;;4964472;28;20493;-78
2023/05/17 04:42:56;;;;;;;21.23;7.20;;;;;;;;;;4971538;28;20037;-78
2023/05/17 04:45:22;;;;;;;17.10;6.70;;;;;;;;;;4967662;28;20033;-78
2023/05/17 04:47:49;;;;;;;17.02;6.10;;;;;;;;;;4965741;28;20031;-77
2023/05/17 04:50:16;;;;;;;16.48;6.32;;;;;;;;;;4975033;28;20023;-77
2023/05/17 04:52:42;;;;;;;19.52;8.00;;;;;;;;;;4973548;28;20038;-76
2023/05/17 04:55:12;;;;;;;19.63;7.13;;;;;;;;;;4954484;28;20063;-76
2023/05/17 04:57:38;;;;;;;20.50;7.00;;;;;;;;;;4955747;28;20038;-76
2023/05/17 05:00:05;;;;;;;21.83;7.78;;;;;;;;;;4957415;28;20026;-75
2023/05/17 05:02:32;;;;;;;17.88;6.30;;;;;;;;;;4978980;28;20022;-76
2023/05/17 05:04:58;;;;;;;25.25;7.28;;;;;;;;;;4977696;28;20041;-77
2023/05/17 05:07:25;;;;;;;23.05;7.45;;;;;;;;;;4978117;28;20492;-76
2023/05/17 05:10:01;;;;;;;17.73;6.65;;;;;;;;;;4977528;28;20061;-77
2023/05/17 05:12:27;;;;;;;23.30;7.55;;;;;;;;;;4944994;29;20031;-78
2023/05/17 05:14:53;;;;;;;19.27;6.80;;;;;;;;;;4974373;28;20035;-76
2023/05/17 05:17:19;;;;;;;19.25;7.25;;;;;;;;;;4982670;28;20019;-76
2023/05/17 05:19:45;;;;;;;18.42;7.57;;;;;;;;;;4962585;28;20051;-76
2023/05/17 05:22:11;;;;;;;16.00;6.93;;;;;;;;;;4957343;28;20022;-76
2023/05/17 05:24:37;;;;;;;17.35;7.18;;;;;;;;;;4971764;28;20152;-76
2023/05/17 05:27:03;;;;;;;20.55;7.50;;;;;;;;;;4987509;28;20023;-76
2023/05/17 05:29:30;;;;;;;20.05;6.40;;;;;;;;;;4962063;28;20039;-78
2023/05/17 05:31:56;;;;;;;27.33;7.72;;;;;;;;;;4973299;28;20027;-77
2023/05/17 05:34:23;;;;;;;20.42;6.60;;;;;;;;;;4964668;28;20413;-77
2023/05/17 05:36:49;;;;;;;26.20;6.78;;;;;;;;;;4974278;28;20082;-75
2023/05/17 05:39:15;;;;;;;13.70;6.00;;;;;;;;;;4965408;28;20031;-76
2023/05/17 05:41:42;;;;;;;21.85;6.65;;;;;;;;;;4971113;28;20098;-77
2023/05/17 05:44:08;;;;;;;21.63;7.72;;;;;;;;;;4955102;28;20035;-76
2023/05/17 05:46:34;;;;;;;19.23;6.93;;;;;;;;;;4980416;28;20089;-76
2023/05/17 05:49:00;;;;;;;30.55;7.57;;;;;;;;;;4966248;28;20039;-76
2023/05/17 05:51:28;;;;;;;16.70;6.63;;;;;;;;;;4953409;28;20517;-77
2023/05/17 05:53:55;;;;;;;16.02;5.40;;;;;;;;;;4951944;28;20035;-78
2023/05/17 05:56:20;;;;;;;18.90;6.65;;;;;;;;;;4959993;28;20573;-76
2023/05/17 05:58:47;;;;;;;21.98;6.10;;;;;;;;;;4962862;28;20106;-76
2023/05/17 06:01:13;;;;;;;17.13;5.40;;;;;;;;;;4944497;28;20031;-77
2023/05/17 06:03:39;;;;;;;15.32;5.65;;;;;;;;;;4947555;28;20034;-78
2023/05/17 06:06:05;;;;;;;20.00;5.95;;;;;;;;;;4975941;28;20034;-77
2023/05/17 06:08:31;;;;;;;10.93;3.28;;;;;;;;;;4961100;28;20062;-76
2023/05/17 06:10:58;;;;;;;17.08;4.78;;;;;;;;;;4971289;28;20035;-75
2023/05/17 06:13:24;;;;;;;22.35;5.72;;;;;;;;;;4953858;28;20094;-77
2023/05/17 06:15:50;;;;;;;20.58;5.72;;;;;;;;;;4963055;28;20477;-78
2023/05/17 06:18:16;;;;;;;13.48;4.20;;;;;;;;;;4966893;28;20051;-76
2023/05/17 06:20:42;;;;;;;25.52;5.25;;;;;;;;;;4949030;28;20101;-77
2023/05/17 06:23:08;;;;;;;22.25;5.10;;;;;;;;;;4949778;28;20097;-78
2023/05/17 06:25:34;;;;;;;23.10;6.65;;;;;;;;;;4957026;28;20489;-76
2023/05/17 06:28:08;;;;;;;18.50;6.32;;;;;;;;;;4966117;28;20086;-75
2023/05/17 06:30:35;;;;;;;17.42;4.40;;;;;;;;;;4944067;29;20035;-76
2023/05/17 06:33:01;;;;;;;14.18;4.53;;;;;;;;;;4969629;28;20030;-75
2023/05/17 06:35:27;;;;;;;13.27;3.10;;;;;;;;;;4945491;29;20490;-75
2023/05/17 06:37:53;;;;;;;15.85;3.25;;;;;;;;;;4961649;28;20037;-74
2023/05/17 06:40:19;;;;;;;17.13;3.42;;;;;;;;;;4961070;28;20035;-75
2023/05/17 06:42:47;;;;;;;15.52;3.10;;;;;;;;;;4956413;28;20520;-75
2023/05/17 06:45:13;;;;;;;22.23;3.58;;;;;;;;;;4970427;28;20019;-75
2023/05/17 06:47:40;;;;;;;12.63;3.50;;;;;;;;;;4965043;28;20046;-75
2023/05/17 06:50:07;;;;;;;20.75;4.28;;;;;;;;;;4970576;28;20069;-75
2023/05/17 06:52:33;;;;;;;14.65;3.53;;;;;;;;;;4967086;28;20031;-75
2023/05/17 06:54:59;;;;;;;8.60;2.97;;;;;;;;;;4965379;28;20034;-75
2023/05/17 06:57:25;;;;;;;12.95;3.20;;;;;;;;;;4953831;28;20039;-74
2023/05/17 06:59:51;;;;;;;11.60;2.70;;;;;;;;;;4964645;28;20039;-73
2023/05/17 07:02:18;;;;;;;12.45;3.28;;;;;;;;;;4963635;28;20060;-75
2023/05/17 07:04:44;;;;;;;16.13;3.20;;;;;;;;;;4943995;28;20402;-75
2023/05/17 07:07:10;;;;;;;11.05;3.63;;;;;;;;;;4966850;28;20036;-75
2023/05/17 07:09:36;;;;;;;15.10;2.88;;;;;;;;;;4964565;28;20389;-74
2023/05/17 07:12:04;;;;;;;12.57;3.10;;;;;;;;;;4952338;28;20159;-75
2023/05/17 07:14:30;;;;;;;16.00;3.00;;;;;;;;;;4953737;28;20027;-74
2023/05/17 07:16:56;;;;;;;12.90;2.30;;;;;;;;;;4953575;28;20473;-75
2023/05/17 07:19:25;;;;;;;12.98;3.20;;;;;;;;;;4965715;28;20035;-76
2023/05/17 07:21:52;;;;;;;14.05;2.65;;;;;;;;;;4969732;28;20026;-75
2023/05/17 07:24:18;;;;;;;20.65;3.30;;;;;;;;;;4963803;28;20054;-76
2023/05/17 07:26:44;;;;;;;11.55;2.78;;;;;;;;;;4967614;28;20061;-75
2023/05/17 07:29:11;;;;;;;9.95;2.92;;;;;;;;;;4969449;28;20050;-73
2023/05/17 07:31:37;;;;;;;17.27;3.50;;;;;;;;;;4964066;28;20544;-76
2023/05/17 07:34:04;;;;;;;12.82;3.00;;;;;;;;;;4955647;28;20031;-75
2023/05/17 07:36:30;;;;;;;17.40;3.50;;;;;;;;;;4969706;28;20097;-75
2023/05/17 07:38:56;;;;;;;17.25;3.55;;;;;;;;;;4972763;28;20034;-75
2023/05/17 07:41:22;;;;;;;11.77;2.40;;;;;;;;;;4968993;28;20025;-76
2023/05/17 07:43:49;;;;;;;8.75;2.33;;;;;;;;;;4958272;28;20107;-75
2023/05/17 07:46:15;;;;;;;17.58;3.13;;;;;;;;;;4971244;28;20076;-74
2023/05/17 07:48:42;;;;;;;15.10;2.85;;;;;;;;;;4958224;28;20067;-75
2023/05/17 07:51:08;;;;;;;18.00;2.38;;;;;;;;;;4961724;28;20110;-74
2023/05/17 07:53:34;;;;;;;7.72;1.90;;;;;;;;;;4959335;28;20110;-75
2023/05/17 07:56:00;;;;;;;13.85;2.85;;;;;;;;;;4963243;28;20117;-75
2023/05/17 07:58:29;;;;;;;9.90;2.28;;;;;;;;;;4968543;28;20066;-74
2023/05/17 08:00:55;;;;;;;9.88;2.22;;;;;;;;;;4970405;28;20027;-75
2023/05/17 08:03:21;;;;;;;10.07;1.92;;;;;;;;;;4965309;28;20393;-74
2023/05/17 08:05:47;;;;;;;10.13;1.58;;;;;;;;;;4970667;28;20505;-75
2023/05/17 08:08:13;;;;;;;8.48;2.15;;;;;;;;;;4967526;28;20045;-74
2023/05/17 08:10:39;;;;;;;9.52;2.58;;;;;;;;;;4970104;28;20560;-74
2023/05/17 08:13:05;;;;;;;12.10;2.50;;;;;;;;;;4954805;28;20111;-74
2023/05/17 08:15:31;;;;;;;8.43;2.10;;;;;;;;;;4963752;28;20490;-75
2023/05/17 08:17:57;;;;;;;11.45;2.58;;;;;;;;;;4958205;28;20119;-74
2023/05/17 08:20:23;;;;;;;9.43;2.05;;;;;;;;;;4959844;28;20118;-74
2023/05/17 08:22:49;;;;;;;10.35;2.15;;;;;;;;;;4967324;28;20019;-74
2023/05/17 08:25:15;;;;;;;10.98;2.15;;;;;;;;;;4959167;28;20575;-75
2023/05/17 08:27:42;;;;;;;13.43;2.50;;;;;;;;;;4970236;28;20034;-75
2023/05/17 08:30:08;;;;;;;8.93;2.00;;;;;;;;;;4971254;28;20033;-74
2023/05/17 08:32:34;;;;;;;10.35;2.03;;;;;;;;;;4968732;28;20181;-74
2023/05/17 08:35:00;;;;;;;12.65;2.38;;;;;;;;;;4959685;28;20506;-74
2023/05/17 08:37:26;;;;;;;10.25;1.90;;;;;;;;;;4968074;28;20509;-76
2023/05/17 08:39:52;;;;;;;14.13;1.80;;;;;;;;;;4957758;28;20106;-73
2023/05/17 08:42:21;;;;;;;14.25;1.73;;;;;;;;;;4969088;28;20478;-74
2023/05/17 08:44:47;;;;;;;4.95;1.27;;;;;;;;;;4970081;28;20110;-75
2023/05/17 08:47:25;;;;;;;10.65;1.88;;;;;;;;;;4960137;28;20412;-75
2023/05/17 08:49:56;;;;;;;6.22;1.60;;;;;;;;;;4963660;28;20045;-74
2023/05/17 08:52:22;;;;;;;6.28;1.65;;;;;;;;;;4963829;28;20038;-74
2023/05/17 08:54:48;;;;;;;8.07;1.40;;;;;;;;;;4961729;28;20023;-74
2023/05/17 08:57:17;;;;;;;6.10;1.52;;;;;;;;;;4967486;28;20946;-76
2023/05/17 08:59:43;;;;;;;9.88;1.92;;;;;;;;;;4966673;28;20042;-75
2023/05/17 09:02:10;;;;;;;7.85;1.52;;;;;;;;;;4969926;28;20054;-75
2023/05/17 09:04:36;;;;;;;8.02;1.60;;;;;;;;;;4962667;28;20033;-74
2023/05/17 09:07:02;;;;;;;9.77;1.45;;;;;;;;;;4973799;28;20041;-74
2023/05/17 09:09:29;;;;;;;11.18;2.45;;;;;;;;;;4962759;28;20043;-75
2023/05/17 09:11:55;;;;;;;9.25;1.85;;;;;;;;;;4968154;28;20023;-73
2023/05/17 09:14:21;;;;;;;6.03;1.33;;;;;;;;;;4970691;28;20062;-75
2023/05/17 09:16:56;;;;;;;10.15;1.92;;;;;;;;;;4971679;28;20023;-73
2023/05/17 09:19:23;;;;;;;6.60;1.73;;;;;;;;;;4965276;28;20027;-74
2023/05/17 09:21:50;;;;;;;4.75;1.38;;;;;;;;;;4970669;28;20035;-74
2023/05/17 09:24:19;;;;;;;6.90;1.90;;;;;;;;;;4966836;28;20042;-74
2023/05/17 09:26:45;;;;;;;7.78;1.80;;;;;;;;;;4959113;28;20038;-73
2023/05/17 09:29:12;;;;;;;5.10;1.65;;;;;;;;;;4963891;28;20085;-75
2023/05/17 09:31:38;;;;;;;9.50;1.73;;;;;;;;;;4967583;28;20019;-74
2023/05/17 09:34:06;;;;;;;7.35;1.42;;;;;;;;;;4964860;28;20139;-73
2023/05/17 09:36:33;;;;;;;6.95;1.17;;;;;;;;;;4960984;28;20445;-74
2023/05/17 09:39:21;;;;;;;7.55;1.52;;;;;;;;;;4950685;28;20686;-73
2023/05/17 09:41:48;;;;;;;7.30;1.52;;;;;;;;;;4966713;28;20038;-73
2023/05/17 09:44:15;;;;;;;6.97;1.50;;;;;;;;;;4964622;28;20034;-73
2023/05/17 09:46:46;;;;;;;9.32;1.67;;;;;;;;;;4961300;28;20027;-72
2023/05/17 09:49:12;;;;;;;5.68;1.00;;;;;;;;;;4960990;28;20122;-73
2023/05/17 09:51:42;;;;;;;8.52;2.13;;;;;;;;;;4960677;28;20023;-73
2023/05/17 09:54:09;;;;;;;7.22;1.83;;;;;;;;;;4962647;28;20031;-74
2023/05/17 09:56:35;;;;;;;6.95;1.45;;;;;;;;;;4967969;28;20019;-73
2023/05/17 09:59:02;;;;;;;7.25;1.40;;;;;;;;;;4950856;28;20457;-72
2023/05/17 10:01:30;;;;;;;6.90;1.33;;;;;;;;;;4964452;28;20054;-73
2023/05/17 10:04:00;;;;;;;7.07;1.30;;;;;;;;;;4963226;28;20378;-73
2023/05/17 10:06:27;;;;;;;10.35;1.88;;;;;;;;;;4957898;28;20061;-73
2023/05/17 10:08:55;;;;;;;6.25;1.20;;;;;;;;;;4951944;28;20046;-73
2023/05/17 10:11:24;;;;;;;9.38;2.20;;;;;;;;;;4968739;28;20035;-72
2023/05/17 10:14:04;;;;;;;7.05;1.35;;;;;;;;;;4965900;28;20027;-74
2023/05/17 10:16:32;;;;;;;4.60;1.33;;;;;;;;;;4940995;28;20389;-75
2023/05/17 10:18:59;;;;;;;7.53;1.20;;;;;;;;;;4948376;28;20125;-75
2023/05/17 10:21:27;;;;;;;6.85;1.33;;;;;;;;;;4954050;28;20033;-74
2023/05/17 10:23:54;;;;;;;4.55;0.88;;;;;;;;;;4958743;28;20054;-75
2023/05/17 10:26:21;;;;;;;5.22;0.93;;;;;;;;;;4970147;28;20035;-74
2023/05/17 10:28:50;;;;;;;5.80;1.10;;;;;;;;;;4959696;28;20043;-74
2023/05/17 10:31:17;;;;;;;6.15;1.80;;;;;;;;;;4963275;28;20027;-74
2023/05/17 10:33:45;;;;;;;5.93;1.20;;;;;;;;;;4946650;29;20042;-75
2023/05/17 10:36:13;;;;;;;4.10;1.23;;;;;;;;;;4959637;28;20116;-73
2023/05/17 10:38:40;;;;;;;4.93;1.10;;;;;;;;;;4956158;28;20027;-74
2023/05/17 10:41:06;;;;;;;6.63;1.33;;;;;;;;;;4966097;28;20560;-74
2023/05/17 10:43:33;;;;;;;8.23;1.25;;;;;;;;;;4965561;28;20122;-74
2023/05/17 10:45:59;;;;;;;4.63;0.93;;;;;;;;;;4965555;28;20027;-74
2023/05/17 10:48:29;;;;;;;7.20;1.25;;;;;;;;;;4968887;28;20030;-73
2023/05/17 10:50:55;;;;;;;6.25;1.35;;;;;;;;;;4958470;28;20035;-74
2023/05/17 10:53:22;;;;;;;5.85;1.20;;;;;;;;;;4963955;28;20055;-75
2023/05/17 10:55:49;;;;;;;4.25;1.10;;;;;;;;;;4936143;28;20031;-74
2023/05/17 10:58:21;;;;;;;7.43;1.25;;;;;;;;;;4949486;28;20031;-74
2023/05/17 11:00:53;;;;;;;4.60;1.00;;;;;;;;;;4949684;28;20039;-75
2023/05/17 11:03:19;;;;;;;5.28;1.25;;;;;;;;;;4963486;28;20027;-73
2023/05/17 11:06:05;;;;;;;3.30;1.05;;;;;;;;;;4965323;28;20035;-76
2023/05/17 11:08:32;;;;;;;6.25;1.77;;;;;;;;;;4965191;28;20031;-73
2023/05/17 11:11:11;;;;;;;4.65;1.40;;;;;;;;;;4954752;28;20031;-74
2023/05/17 11:13:45;;;;;;;4.32;1.30;;;;;;;;;;4967485;28;20026;-75
2023/05/17 11:16:14;;;;;;;5.90;1.40;;;;;;;;;;4953446;28;20070;-73
2023/05/17 11:18:51;;;;;;;5.23;1.20;;;;;;;;;;4959077;28;20224;-75
2023/05/17 11:21:17;;;;;;;4.55;0.90;;;;;;;;;;4962139;28;20119;-74
2023/05/17 11:23:44;;;;;;;5.05;1.13;;;;;;;;;;4967828;28;20026;-75
2023/05/17 11:26:17;;;;;;;4.25;0.88;;;;;;;;;;4969024;28;20045;-76
2023/05/17 11:28:45;;;;;;;5.00;1.55;;;;;;;;;;4968731;28;20042;-77
2023/05/17 11:31:12;;;;;;;5.20;1.00;;;;;;;;;;4954636;28;20027;-75
2023/05/17 11:33:53;;;;;;;6.85;1.67;;;;;;;;;;4958538;28;20640;-74
2023/05/17 11:36:21;;;;;;;4.07;1.25;;;;;;;;;;4965204;28;20126;-76
2023/05/17 11:38:50;;;;;;;4.78;1.20;;;;;;;;;;4961122;28;20114;-76
2023/05/17 11:41:17;;;;;;;5.20;1.17;;;;;;;;;;4935361;29;20429;-74
2023/05/17 11:43:47;;;;;;;5.18;1.08;;;;;;;;;;4964893;28;20772;-75
2023/05/17 11:46:19;;;;;;;4.95;1.27;;;;;;;;;;4964887;28;20039;-76
2023/05/17 11:48:46;;;;;;;5.18;1.13;;;;;;;;;;4963183;28;20129;-75
2023/05/17 11:51:18;;;;;;;5.90;1.13;;;;;;;;;;4952065;28;20545;-75
2023/05/17 11:53:47;;;;;;;6.18;1.30;;;;;;;;;;4962197;28;20038;-74
2023/05/17 11:56:14;;;;;;;5.70;1.02;;;;;;;;;;4945610;29;20031;-75
2023/05/17 11:58:41;;;;;;;4.75;0.90;;;;;;;;;;4960651;28;20102;-76
2023/05/17 12:01:07;;;;;;;4.78;1.35;;;;;;;;;;4961364;28;20034;-74
2023/05/17 12:03:34;;;;;;;5.50;1.67;;;;;;;;;;4938401;28;20202;-76
2023/05/17 12:06:01;;;;;;;3.33;0.82;;;;;;;;;;4954514;28;20031;-75
2023/05/17 12:08:28;;;;;;;5.15;1.13;;;;;;;;;;4954966;28;20844;-74
2023/05/17 12:10:55;;;;;;;4.85;1.30;;;;;;;;;;4954194;28;20592;-75
2023/05/17 12:13:22;;;;;;;4.07;0.85;;;;;;;;;;4970244;28;20023;-74
2023/05/17 12:15:55;;;;;;;6.55;1.67;;;;;;;;;;4944173;29;20059;-75
2023/05/17 12:18:22;;;;;;;6.75;1.15;;;;;;;;;;4968694;28;20035;-75
2023/05/17 12:20:54;;;;;;;6.82;1.65;;;;;;;;;;4967744;28;20031;-73
2023/05/17 12:23:30;;;;;;;8.30;1.65;;;;;;;;;;4957577;28;20031;-75
2023/05/17 12:26:03;;;;;;;5.15;1.17;;;;;;;;;;4969599;28;20035;-76
2023/05/17 12:28:30;;;;;;;6.22;1.13;;;;;;;;;;4951753;28;20582;-75
2023/05/17 12:31:01;;;;;;;5.45;1.10;;;;;;;;;;4961170;28;20023;-72
2023/05/17 12:33:27;;;;;;;5.28;1.00;;;;;;;;;;4970637;28;20034;-74
2023/05/17 12:35:53;;;;;;;7.00;1.80;;;;;;;;;;4965668;28;20053;-75
2023/05/17 12:38:20;;;;;;;4.38;1.02;;;;;;;;;;4933825;29;20023;-75
2023/05/17 12:40:46;;;;;;;5.45;1.00;;;;;;;;;;4964685;28;20073;-74
2023/05/17 12:43:12;;;;;;;9.63;1.80;;;;;;;;;;4962523;28;20027;-74
2023/05/17 12:45:40;;;;;;;7.72;2.40;;;;;;;;;;4963812;28;20027;-75
2023/05/17 12:48:07;;;;;;;7.72;1.90;;;;;;;;;;4962349;28;20035;-76
2023/05/17 12:50:33;;;;;;;4.93;1.00;;;;;;;;;;4946733;28;20134;-76
2023/05/17 12:52:59;;;;;;;5.93;1.13;;;;;;;;;;4961643;28;20042;-75
2023/05/17 12:55:25;;;;;;;5.88;1.10;;;;;;;;;;4963734;28;20033;-76
2023/05/17 12:57:52;;;;;;;7.13;1.35;;;;;;;;;;4964215;28;20054;-75
2023/05/17 13:00:19;;;;;;;5.75;1.38;;;;;;;;;;4970714;28;20452;-77
2023/05/17 13:02:45;;;;;;;7.70;1.75;;;;;;;;;;4970824;28;20029;-76
2023/05/17 13:05:17;;;;;;;6.65;1.75;;;;;;;;;;4964545;28;20035;-75
2023/05/17 13:07:44;;;;;;;5.07;1.20;;;;;;;;;;4960189;28;20022;-76
2023/05/17 13:10:27;;;;;;;7.20;1.38;;;;;;;;;;4970226;28;21268;-75
2023/05/17 13:12:59;;;;;;;5.80;1.55;;;;;;;;;;4962798;28;20042;-76
2023/05/17 13:15:27;;;;;;;7.53;1.80;;;;;;;;;;4962831;28;20087;-76
2023/05/17 13:17:53;;;;;;;8.48;1.80;;;;;;;;;;4963916;28;20027;-75
2023/05/17 13:20:19;;;;;;;7.40;2.03;;;;;;;;;;4957670;28;20027;-74
2023/05/17 13:22:46;;;;;;;7.53;1.75;;;;;;;;;;4962194;28;20372;-75
2023/05/17 13:25:12;;;;;;;5.25;1.30;;;;;;;;;;4958452;28;20308;-76
2023/05/17 13:27:44;;;;;;;5.13;1.40;;;;;;;;;;4956207;28;20106;-76
2023/05/17 13:30:10;;;;;;;4.60;1.30;;;;;;;;;;4962574;28;20031;-76
2023/05/17 13:32:36;;;;;;;3.40;1.23;;;;;;;;;;4965019;28;20385;-77
2023/05/17 13:35:03;;;;;;;6.85;1.70;;;;;;;;;;4969034;28;20043;-74
2023/05/17 13:37:29;;;;;;;5.80;1.73;;;;;;;;;;4966808;28;20031;-76
2023/05/17 13:39:56;;;;;;;8.63;1.83;;;;;;;;;;4948707;28;20058;-77
2023/05/17 13:42:22;;;;;;;7.25;1.45;;;;;;;;;;4947161;28;20030;-73
2023/05/17 13:44:48;;;;;;;6.05;1.52;;;;;;;;;;4965836;28;20466;-75
2023/05/17 13:47:15;;;;;;;7.40;1.70;;;;;;;;;;4968849;28;20105;-76
2023/05/17 13:49:41;;;;;;;5.82;1.27;;;;;;;;;;4956124;28;20039;-75
2023/05/17 13:52:07;;;;;;;7.43;1.83;;;;;;;;;;4947948;28;20038;-76
2023/05/17 13:54:34;;;;;;;5.57;1.25;;;;;;;;;;4942282;28;20790;-76
2023/05/17 13:57:00;;;;;;;6.57;1.60;;;;;;;;;;4968613;28;20019;-76
2023/05/17 13:59:27;;;;;;;8.73;1.67;;;;;;;;;;4963132;28;20023;-76
2023/05/17 14:01:53;;;;;;;8.70;1.48;;;;;;;;;;4967773;28;20113;-77
2023/05/17 14:04:20;;;;;;;6.72;1.50;;;;;;;;;;4963923;28;20034;-76
2023/05/17 14:06:46;;;;;;;8.07;2.42;;;;;;;;;;4965929;28;20104;-77
2023/05/17 14:09:13;;;;;;;4.72;1.40;;;;;;;;;;4964446;28;20441;-77
2023/05/17 14:11:39;;;;;;;7.03;1.73;;;;;;;;;;4967624;28;20101;-77
2023/05/17 14:14:05;;;;;;;6.47;1.52;;;;;;;;;;4967974;28;20101;-77
2023/05/17 14:16:31;;;;;;;4.05;1.17;;;;;;;;;;4966766;28;20046;-77
2023/05/17 14:18:57;;;;;;;7.38;1.88;;;;;;;;;;4967639;28;20039;-76
2023/05/17 14:21:24;;;;;;;5.10;1.50;;;;;;;;;;4965227;28;20105;-75
2023/05/17 14:23:50;;;;;;;8.70;2.13;;;;;;;;;;4964067;28;20063;-76
2023/05/17 14:26:16;;;;;;;5.88;1.25;;;;;;;;;;4967019;28;20035;-76
2023/05/17 14:28:42;;;;;;;6.00;1.45;;;;;;;;;;4964067;28;20464;-75
2023/05/17 14:31:09;;;;;;;6.72;1.38;;;;;;;;;;4963506;28;20031;-76
2023/05/17 14:33:35;;;;;;;7.28;1.42;;;;;;;;;;4962433;28;20034;-75
2023/05/17 14:36:05;;;;;;;6.30;1.38;;;;;;;;;;4964395;28;20109;-76